createdAt,value
2022-07-29T00:01:05.756Z,101182.92
2022-07-29T00:06:11.888Z,101173.95
2022-07-29T00:11:17.806Z,101179.80
2022-07-29T00:16:24.099Z,101180.02
2022-07-29T00:21:30.579Z,101184.74
2022-07-29T00:26:36.553Z,101182.34
2022-07-29T00:31:42.688Z,101181.05
2022-07-29T00:36:48.776Z,101184.61
2022-07-29T00:41:54.748Z,101187.45
2022-07-29T00:47:00.708Z,101184.76
2022-07-29T00:52:08.773Z,101183.91
2022-07-29T00:57:15.570Z,101177.45
2022-07-29T01:02:21.610Z,101174.47
2022-07-29T01:07:28.965Z,101177.20
2022-07-29T01:12:36.680Z,101173.01
2022-07-29T01:17:53.534Z,101169.13
2022-07-29T01:23:23.664Z,101169.78
2022-07-29T01:29:08.437Z,101170.42
2022-07-29T01:34:25.992Z,101174.54
2022-07-29T01:39:36.029Z,101170.91
2022-07-29T01:44:47.381Z,101171.04
2022-07-29T01:49:56.252Z,101172.45
2022-07-29T01:55:07.535Z,101175.44
2022-07-29T02:00:16.194Z,101178.48
2022-07-29T02:05:24.688Z,101181.88
2022-07-29T02:10:33.690Z,101185.41
2022-07-29T02:15:42.792Z,101188.73
2022-07-29T02:20:53.942Z,101188.55
2022-07-29T02:26:00.803Z,101185.92
2022-07-29T02:31:07.733Z,101179.23
2022-07-29T02:36:14.725Z,101176.55
2022-07-29T02:41:24.272Z,101178.92
2022-07-29T02:46:33.922Z,101174.96
2022-07-29T02:51:45.077Z,101175.15
2022-07-29T02:56:54.662Z,101179.34
2022-07-29T03:02:03.136Z,101177.84
2022-07-29T03:07:10.088Z,101179.83
2022-07-29T03:12:17.115Z,101184.51
2022-07-29T03:17:24.271Z,101183.89
2022-07-29T03:22:31.630Z,101189.11
2022-07-29T03:27:37.673Z,101187.07
2022-07-29T03:32:44.435Z,101190.38
2022-07-29T03:37:50.933Z,101192.11
2022-07-29T03:42:59.054Z,101189.85
2022-07-29T03:48:09.445Z,101184.55
2022-07-29T03:53:15.850Z,101178.83
2022-07-29T03:58:22.261Z,101175.95
2022-07-29T04:03:28.419Z,101179.48
2022-07-29T04:08:34.467Z,101187.20
2022-07-29T04:13:40.683Z,101188.85
2022-07-29T04:18:46.562Z,101186.88
2022-07-29T04:23:53.938Z,101192.38
2022-07-29T04:29:00.043Z,101190.20
2022-07-29T04:34:06.301Z,101197.71
2022-07-29T04:39:12.411Z,101197.20
2022-07-29T04:44:19.638Z,101193.36
2022-07-29T04:49:26.052Z,101195.88
2022-07-29T04:54:31.929Z,101196.10
2022-07-29T04:59:37.925Z,101189.98
2022-07-29T05:04:43.985Z,101193.02
2022-07-29T05:09:50.051Z,101196.88
2022-07-29T05:14:56.153Z,101198.95
2022-07-29T05:20:02.120Z,101197.33
2022-07-29T05:25:10.556Z,101200.71
2022-07-29T05:30:16.708Z,101200.64
2022-07-29T05:35:22.765Z,101203.10
2022-07-29T05:40:28.643Z,101211.59
2022-07-29T05:45:34.841Z,101210.13
2022-07-29T05:50:55.793Z,101208.94
2022-07-29T05:56:06.445Z,101208.39
2022-07-29T06:01:12.357Z,101205.41
2022-07-29T06:06:18.714Z,101203.04
2022-07-29T06:11:24.661Z,101200.18
2022-07-29T06:16:30.876Z,101203.73
2022-07-29T06:21:38.660Z,101199.10
2022-07-29T06:26:48.279Z,101198.20
2022-07-29T06:31:54.203Z,101196.04
2022-07-29T06:37:00.017Z,101197.55
2022-07-29T06:42:06.658Z,101200.67
2022-07-29T06:47:13.228Z,101199.97
2022-07-29T06:52:19.655Z,101200.07
2022-07-29T06:57:25.633Z,101195.23
2022-07-29T07:02:31.657Z,101197.10
2022-07-29T07:07:40.391Z,101197.98
2022-07-29T07:12:46.268Z,101200.13
2022-07-29T07:17:52.203Z,101191.30
2022-07-29T07:22:58.094Z,101187.48
2022-07-29T07:28:04.279Z,101189.61
2022-07-29T07:33:10.310Z,101192.40
2022-07-29T07:38:14.707Z,101189.30
2022-07-29T07:43:20.685Z,101191.94
2022-07-29T07:48:25.013Z,101189.27
2022-07-29T07:53:31.529Z,101191.38
2022-07-29T07:58:39.545Z,101194.97
2022-07-29T08:03:45.842Z,101197.33
2022-07-29T08:08:52.068Z,101196.36
2022-07-29T08:13:58.339Z,101196.61
2022-07-29T08:19:04.202Z,101195.78
2022-07-29T08:24:28.974Z,101195.58
2022-07-29T08:29:35.081Z,101194.61
2022-07-29T08:34:47.277Z,101188.79
2022-07-29T08:39:53.280Z,101185.40
2022-07-29T08:44:59.746Z,101190.39
2022-07-29T08:50:06.683Z,101186.82
2022-07-29T08:55:13.790Z,101189.65
2022-07-29T09:00:22.358Z,101194.84
2022-07-29T09:05:27.727Z,101196.77
2022-07-29T09:10:34.036Z,101187.52
2022-07-29T09:15:40.143Z,101184.68
2022-07-29T09:21:13.715Z,101181.09
2022-07-29T09:26:19.578Z,101167.91
2022-07-29T09:31:33.661Z,101169.54
2022-07-29T09:36:44.614Z,101174.39
2022-07-29T09:41:55.624Z,101169.40
2022-07-29T09:47:09.550Z,101166.88
2022-07-29T09:52:15.522Z,101164.88
2022-07-29T09:57:31.220Z,101166.52
2022-07-29T10:02:39.793Z,101158.12
2022-07-29T10:07:53.623Z,101149.87
2022-07-29T10:13:06.441Z,101154.60
2022-07-29T10:18:17.512Z,101144.60
2022-07-29T10:23:23.635Z,101143.36
2022-07-29T10:28:30.733Z,101139.91
2022-07-29T10:33:56.393Z,101139.02
2022-07-29T10:39:15.508Z,101133.08
2022-07-29T10:44:23.178Z,101132.23
2022-07-29T10:49:31.097Z,101124.27
2022-07-29T10:54:44.066Z,101121.21
2022-07-29T10:59:52.945Z,101123.78
2022-07-29T11:05:07.277Z,101123.77
2022-07-29T11:10:31.117Z,101119.63
2022-07-29T11:15:58.279Z,101115.89
2022-07-29T11:21:04.353Z,101111.82
2022-07-29T11:26:26.110Z,101109.26
2022-07-29T11:31:39.165Z,101113.02
2022-07-29T11:37:18.429Z,101102.62
2022-07-29T11:42:53.260Z,101098.42
2022-07-29T11:48:27.731Z,101096.36
2022-07-29T11:53:29.142Z,101098.35
2022-07-29T11:58:40.110Z,101096.63
2022-07-29T12:03:46.918Z,101098.92
2022-07-29T12:08:57.080Z,101092.35
2022-07-29T12:14:03.893Z,101085.73
2022-07-29T12:19:10.028Z,101087.71
2022-07-29T12:24:16.846Z,101086.40
2022-07-29T12:29:34.459Z,101086.17
2022-07-29T12:34:41.965Z,101089.53
2022-07-29T12:39:48.204Z,101077.46
2022-07-29T12:44:54.010Z,101069.72
2022-07-29T12:50:13.114Z,101070.04
2022-07-29T12:55:39.092Z,101060.14
2022-07-29T13:00:45.891Z,101059.47
2022-07-29T13:05:53.767Z,101058.03
2022-07-29T13:10:59.816Z,101059.59
2022-07-29T13:16:10.167Z,101056.46
2022-07-29T13:21:18.958Z,101055.35
2022-07-29T13:26:25.105Z,101050.95
2022-07-29T13:31:31.409Z,101043.45
2022-07-29T13:36:41.505Z,101047.34
2022-07-29T13:41:47.892Z,101040.05
2022-07-29T13:46:55.161Z,101037.59
2022-07-29T13:52:01.357Z,101032.08
2022-07-29T13:57:08.282Z,101028.10
2022-07-29T14:02:15.597Z,101027.52
2022-07-29T14:07:21.849Z,101025.38
2022-07-29T14:12:27.930Z,101020.29
2022-07-29T14:17:34.000Z,101018.91
2022-07-29T14:22:42.624Z,101016.67
2022-07-29T14:27:51.493Z,101012.69
2022-07-29T14:32:57.481Z,101005.81
2022-07-29T14:38:03.362Z,101003.95
2022-07-29T14:43:09.170Z,100994.27
2022-07-29T14:48:15.476Z,100985.90
2022-07-29T14:53:21.454Z,100985.49
2022-07-29T14:58:27.369Z,100988.93
2022-07-29T15:03:33.907Z,100977.26
2022-07-29T15:08:39.800Z,100975.24
2022-07-29T15:13:45.707Z,100965.47
2022-07-29T15:18:51.904Z,100965.04
2022-07-29T15:23:58.126Z,100956.45
2022-07-29T15:29:04.173Z,100959.67
2022-07-29T15:34:10.062Z,100955.27
2022-07-29T15:39:16.645Z,100947.09
2022-07-29T15:44:22.857Z,100945.35
2022-07-29T15:49:47.689Z,100941.52
2022-07-29T15:54:56.799Z,100939.93
2022-07-29T16:00:03.204Z,100939.23
2022-07-29T16:05:14.044Z,100933.79
2022-07-29T16:10:20.062Z,100932.88
2022-07-29T16:15:26.022Z,100935.48
2022-07-29T16:20:31.982Z,100936.59
2022-07-29T16:25:59.246Z,100935.97
2022-07-29T16:31:06.016Z,100924.45
2022-07-29T16:36:13.182Z,100929.16
2022-07-29T16:41:19.462Z,100919.67
2022-07-29T16:46:25.871Z,100922.25
2022-07-29T16:51:32.134Z,100923.45
2022-07-29T16:56:38.512Z,100931.11
2022-07-29T17:01:46.504Z,100938.48
2022-07-29T17:06:52.770Z,100941.00
2022-07-29T17:11:58.610Z,100942.05
2022-07-29T17:17:12.271Z,100942.75
2022-07-29T17:22:20.119Z,100943.34
2022-07-29T17:27:26.093Z,100940.15
2022-07-29T17:32:36.380Z,100941.63
2022-07-29T17:37:42.305Z,100941.99
2022-07-29T17:42:48.273Z,100944.30
2022-07-29T17:47:54.146Z,100947.71
2022-07-29T17:52:59.899Z,100947.73
2022-07-29T17:58:05.737Z,100951.11
2022-07-29T18:03:12.386Z,100947.58
2022-07-29T18:08:18.478Z,100951.57
2022-07-29T18:13:24.713Z,100943.79
2022-07-29T18:18:30.553Z,100947.67
2022-07-29T18:23:36.392Z,100941.47
2022-07-29T18:28:42.556Z,100942.27
2022-07-29T18:33:48.818Z,100951.09
2022-07-29T18:38:54.766Z,100954.48
2022-07-29T18:44:00.960Z,100956.06
2022-07-29T18:49:07.412Z,100958.40
2022-07-29T18:54:13.360Z,100963.53
2022-07-29T18:59:21.414Z,100963.65
2022-07-29T19:04:27.697Z,100964.41
2022-07-29T19:09:34.783Z,100966.39
2022-07-29T19:14:49.700Z,100969.00
2022-07-29T19:19:55.889Z,100972.35
2022-07-29T19:25:01.914Z,100974.33
2022-07-29T19:30:09.859Z,100981.93
2022-07-29T19:35:25.243Z,100982.11
2022-07-29T19:40:31.706Z,100977.95
2022-07-29T19:45:38.205Z,100976.11
2022-07-29T19:50:45.051Z,100975.95
2022-07-29T19:55:51.263Z,100966.16
2022-07-29T20:00:57.106Z,100968.63
2022-07-29T20:06:02.978Z,100970.36
2022-07-29T20:11:09.173Z,100973.00
2022-07-29T20:16:15.311Z,100973.08
2022-07-29T20:21:23.139Z,100984.16
2022-07-29T20:26:29.568Z,100983.46
2022-07-29T20:31:36.280Z,100984.70
2022-07-29T20:36:42.406Z,100980.11
2022-07-29T20:41:52.695Z,100974.41
2022-07-29T20:46:59.149Z,100967.60
2022-07-29T20:52:06.053Z,100965.66
2022-07-29T20:57:11.954Z,100970.55
2022-07-29T21:02:17.831Z,100969.20
2022-07-29T21:07:23.814Z,100964.35
2022-07-29T21:12:30.379Z,100957.13
2022-07-29T21:17:38.877Z,100957.96
2022-07-29T21:22:44.968Z,100956.54
2022-07-29T21:28:10.342Z,100955.77
2022-07-29T21:33:16.500Z,100951.05
2022-07-29T21:38:22.617Z,100951.15
2022-07-29T21:43:28.938Z,100951.55
2022-07-29T21:48:35.013Z,100949.14
2022-07-29T21:53:42.441Z,100948.48
2022-07-29T21:58:49.958Z,100951.94
2022-07-29T22:03:56.038Z,100946.81
2022-07-29T22:09:01.902Z,100945.14
2022-07-29T22:14:08.094Z,100945.78
2022-07-29T22:19:14.493Z,100944.07
2022-07-29T22:24:20.668Z,100937.49
2022-07-29T22:29:27.371Z,100937.67
2022-07-29T22:34:37.800Z,100931.06
2022-07-29T22:39:44.050Z,100928.14
2022-07-29T22:44:50.357Z,100924.50
2022-07-29T22:49:56.721Z,100919.30
2022-07-29T22:55:02.508Z,100917.69
2022-07-29T23:00:10.796Z,100917.55
2022-07-29T23:05:17.121Z,100917.23
2022-07-29T23:10:23.370Z,100917.63
2022-07-29T23:15:29.304Z,100921.55
2022-07-29T23:20:35.725Z,100919.50
2022-07-29T23:25:41.605Z,100911.17
2022-07-29T23:30:47.530Z,100909.16
2022-07-29T23:35:53.557Z,100904.48
2022-07-29T23:41:01.576Z,100904.65
2022-07-29T23:46:07.593Z,100904.96
2022-07-29T23:51:14.573Z,100901.23
2022-07-29T23:56:20.680Z,100910.56
